sensor_id;sensor_type;location;lat;lon;timestamp;P1;durP1;ratioP1;P2;durP2;ratioP2
46339;SDS011;47273;49.274;8.708;2022-09-16T03:32:43;21.45;;;19.33;;
46339;SDS011;47273;49.274;8.708;2022-09-16T03:35:23;22.52;;;20.40;;
46339;SDS011;47273;49.274;8.708;2022-09-16T03:37:55;22.33;;;19.88;;
46339;SDS011;47273;49.274;8.708;2022-09-16T03:40:22;21.20;;;19.42;;
46339;SDS011;47273;49.274;8.708;2022-09-16T03:42:49;22.77;;;20.42;;
46339;SDS011;47273;49.274;8.708;2022-09-16T03:45:16;24.40;;;20.08;;
46339;SDS011;47273;49.274;8.708;2022-09-16T03:47:46;21.17;;;19.58;;
46339;SDS011;47273;49.274;8.708;2022-09-16T03:50:14;21.98;;;20.15;;
46339;SDS011;47273;49.274;8.708;2022-09-16T03:52:41;21.58;;;19.80;;
46339;SDS011;47273;49.274;8.708;2022-09-16T03:55:07;22.23;;;20.23;;
46339;SDS011;47273;49.274;8.708;2022-09-16T03:57:34;21.77;;;19.95;;
46339;SDS011;47273;49.274;8.708;2022-09-16T04:00:01;21.25;;;19.52;;
46339;SDS011;47273;49.274;8.708;2022-09-16T04:05:02;21.52;;;19.83;;
46339;SDS011;47273;49.274;8.708;2022-09-16T04:07:28;22.05;;;20.05;;
46339;SDS011;47273;49.274;8.708;2022-09-16T04:09:55;22.60;;;20.27;;
46339;SDS011;47273;49.274;8.708;2022-09-16T04:12:21;22.08;;;20.05;;
46339;SDS011;47273;49.274;8.708;2022-09-16T04:14:46;22.17;;;20.25;;
46339;SDS011;47273;49.274;8.708;2022-09-16T04:17:12;29.25;;;19.65;;
46339;SDS011;47273;49.274;8.708;2022-09-16T04:19:37;21.50;;;19.63;;
46339;SDS011;47273;49.274;8.708;2022-09-16T04:22:03;22.60;;;20.35;;
46339;SDS011;47273;49.274;8.708;2022-09-16T04:24:29;20.77;;;19.20;;
46339;SDS011;47273;49.274;8.708;2022-09-16T04:26:54;21.67;;;19.40;;
46339;SDS011;47273;49.274;8.708;2022-09-16T04:29:20;22.08;;;19.70;;
46339;SDS011;47273;49.274;8.708;2022-09-16T04:31:46;22.08;;;19.75;;
46339;SDS011;47273;49.274;8.708;2022-09-16T04:34:11;21.90;;;19.92;;
46339;SDS011;47273;49.274;8.708;2022-09-16T04:36:37;21.05;;;19.25;;
46339;SDS011;47273;49.274;8.708;2022-09-16T04:39:08;22.98;;;20.52;;
46339;SDS011;47273;49.274;8.708;2022-09-16T04:41:33;21.17;;;19.40;;
46339;SDS011;47273;49.274;8.708;2022-09-16T04:44:02;21.60;;;19.88;;
46339;SDS011;47273;49.274;8.708;2022-09-16T04:46:28;22.25;;;20.20;;
46339;SDS011;47273;49.274;8.708;2022-09-16T04:48:56;22.50;;;20.45;;
46339;SDS011;47273;49.274;8.708;2022-09-16T04:51:23;22.50;;;20.10;;
46339;SDS011;47273;49.274;8.708;2022-09-16T04:53:52;21.38;;;19.25;;
46339;SDS011;47273;49.274;8.708;2022-09-16T04:56:20;21.55;;;19.48;;
46339;SDS011;47273;49.274;8.708;2022-09-16T04:58:52;21.65;;;19.73;;
46339;SDS011;47273;49.274;8.708;2022-09-16T05:01:23;20.92;;;18.95;;
46339;SDS011;47273;49.274;8.708;2022-09-16T05:03:58;21.70;;;19.65;;
46339;SDS011;47273;49.274;8.708;2022-09-16T05:06:27;22.00;;;20.05;;
46339;SDS011;47273;49.274;8.708;2022-09-16T05:09:03;22.00;;;19.65;;
46339;SDS011;47273;49.274;8.708;2022-09-16T05:11:31;22.07;;;19.97;;
46339;SDS011;47273;49.274;8.708;2022-09-16T05:14:26;22.08;;;19.77;;
46339;SDS011;47273;49.274;8.708;2022-09-16T05:16:54;22.02;;;19.80;;
46339;SDS011;47273;49.274;8.708;2022-09-16T05:19:19;21.13;;;19.30;;
46339;SDS011;47273;49.274;8.708;2022-09-16T05:21:45;21.67;;;19.80;;
46339;SDS011;47273;49.274;8.708;2022-09-16T05:24:11;21.63;;;19.65;;
46339;SDS011;47273;49.274;8.708;2022-09-16T05:26:38;21.50;;;19.75;;
46339;SDS011;47273;49.274;8.708;2022-09-16T05:29:13;22.40;;;20.25;;
46339;SDS011;47273;49.274;8.708;2022-09-16T05:31:41;22.70;;;19.73;;
46339;SDS011;47273;49.274;8.708;2022-09-16T05:34:12;23.20;;;21.02;;
46339;SDS011;47273;49.274;8.708;2022-09-16T05:36:39;21.55;;;19.83;;
46339;SDS011;47273;49.274;8.708;2022-09-16T05:39:08;22.60;;;20.75;;
46339;SDS011;47273;49.274;8.708;2022-09-16T05:41:35;22.38;;;20.35;;
46339;SDS011;47273;49.274;8.708;2022-09-16T05:44:05;21.67;;;19.90;;
46339;SDS011;47273;49.274;8.708;2022-09-16T05:46:31;21.90;;;20.05;;
46339;SDS011;47273;49.274;8.708;2022-09-16T05:48:58;23.50;;;20.45;;
46339;SDS011;47273;49.274;8.708;2022-09-16T05:51:24;22.38;;;20.20;;
46339;SDS011;47273;49.274;8.708;2022-09-16T05:53:50;21.85;;;20.05;;
46339;SDS011;47273;49.274;8.708;2022-09-16T05:56:25;22.02;;;19.95;;
46339;SDS011;47273;49.274;8.708;2022-09-16T05:58:53;21.65;;;19.75;;
46339;SDS011;47273;49.274;8.708;2022-09-16T06:01:25;22.65;;;20.45;;
46339;SDS011;47273;49.274;8.708;2022-09-16T06:03:54;22.35;;;20.35;;
46339;SDS011;47273;49.274;8.708;2022-09-16T06:06:31;23.30;;;21.27;;
46339;SDS011;47273;49.274;8.708;2022-09-16T06:09:03;26.05;;;20.55;;
46339;SDS011;47273;49.274;8.708;2022-09-16T06:11:41;22.00;;;20.23;;
46339;SDS011;47273;49.274;8.708;2022-09-16T06:14:08;23.25;;;20.98;;
46339;SDS011;47273;49.274;8.708;2022-09-16T06:16:37;23.67;;;21.23;;
46339;SDS011;47273;49.274;8.708;2022-09-16T06:19:05;23.33;;;21.33;;
46339;SDS011;47273;49.274;8.708;2022-09-16T06:21:34;22.50;;;20.42;;
46339;SDS011;47273;49.274;8.708;2022-09-16T06:24:01;22.95;;;20.77;;
46339;SDS011;47273;49.274;8.708;2022-09-16T06:26:27;21.77;;;19.85;;
46339;SDS011;47273;49.274;8.708;2022-09-16T06:28:53;23.33;;;21.20;;
46339;SDS011;47273;49.274;8.708;2022-09-16T06:31:22;22.38;;;20.48;;
46339;SDS011;47273;49.274;8.708;2022-09-16T06:33:49;23.35;;;21.23;;
46339;SDS011;47273;49.274;8.708;2022-09-16T06:36:17;22.15;;;20.35;;
46339;SDS011;47273;49.274;8.708;2022-09-16T06:38:45;23.58;;;20.80;;
46339;SDS011;47273;49.274;8.708;2022-09-16T06:41:12;22.95;;;20.58;;
46339;SDS011;47273;49.274;8.708;2022-09-16T06:43:38;23.08;;;21.10;;
46339;SDS011;47273;49.274;8.708;2022-09-16T06:48:54;22.63;;;20.40;;
46339;SDS011;47273;49.274;8.708;2022-09-16T06:51:22;23.13;;;20.73;;
46339;SDS011;47273;49.274;8.708;2022-09-16T06:54:11;23.48;;;20.30;;
46339;SDS011;47273;49.274;8.708;2022-09-16T06:56:37;23.63;;;20.52;;
46339;SDS011;47273;49.274;8.708;2022-09-16T06:59:05;22.00;;;19.88;;
46339;SDS011;47273;49.274;8.708;2022-09-16T07:01:33;21.08;;;19.27;;
46339;SDS011;47273;49.274;8.708;2022-09-16T07:04:04;21.33;;;19.25;;
46339;SDS011;47273;49.274;8.708;2022-09-16T07:06:32;22.35;;;20.10;;
46339;SDS011;47273;49.274;8.708;2022-09-16T07:08:58;21.10;;;19.40;;
46339;SDS011;47273;49.274;8.708;2022-09-16T07:11:24;21.95;;;19.75;;
46339;SDS011;47273;49.274;8.708;2022-09-16T07:13:50;21.42;;;19.38;;
46339;SDS011;47273;49.274;8.708;2022-09-16T07:16:25;21.35;;;19.50;;
46339;SDS011;47273;49.274;8.708;2022-09-16T07:18:52;23.88;;;20.90;;
46339;SDS011;47273;49.274;8.708;2022-09-16T07:21:22;25.15;;;20.98;;
46339;SDS011;47273;49.274;8.708;2022-09-16T07:23:55;23.15;;;20.85;;
46339;SDS011;47273;49.274;8.708;2022-09-16T07:26:23;23.05;;;21.15;;
46339;SDS011;47273;49.274;8.708;2022-09-16T07:28:50;21.48;;;19.75;;
46339;SDS011;47273;49.274;8.708;2022-09-16T07:31:22;21.38;;;19.58;;
46339;SDS011;47273;49.274;8.708;2022-09-16T07:33:53;21.63;;;19.63;;
46339;SDS011;47273;49.274;8.708;2022-09-16T07:36:21;22.40;;;19.40;;
46339;SDS011;47273;49.274;8.708;2022-09-16T07:38:57;20.67;;;18.92;;
46339;SDS011;47273;49.274;8.708;2022-09-16T07:41:24;23.98;;;21.63;;
46339;SDS011;47273;49.274;8.708;2022-09-16T07:43:53;21.98;;;19.88;;
46339;SDS011;47273;49.274;8.708;2022-09-16T07:46:20;21.35;;;19.23;;
46339;SDS011;47273;49.274;8.708;2022-09-16T07:48:46;21.17;;;19.33;;
46339;SDS011;47273;49.274;8.708;2022-09-16T07:51:20;21.20;;;19.10;;
46339;SDS011;47273;49.274;8.708;2022-09-16T07:53:48;20.25;;;18.23;;
46339;SDS011;47273;49.274;8.708;2022-09-16T07:56:23;20.40;;;18.60;;
46339;SDS011;47273;49.274;8.708;2022-09-16T07:58:51;21.52;;;19.55;;
46339;SDS011;47273;49.274;8.708;2022-09-16T08:01:18;21.50;;;19.67;;
46339;SDS011;47273;49.274;8.708;2022-09-16T08:03:59;21.40;;;19.67;;
46339;SDS011;47273;49.274;8.708;2022-09-16T08:06:26;21.90;;;19.90;;
46339;SDS011;47273;49.274;8.708;2022-09-16T08:08:54;21.35;;;19.60;;
46339;SDS011;47273;49.274;8.708;2022-09-16T08:11:21;21.27;;;19.50;;
46339;SDS011;47273;49.274;8.708;2022-09-16T08:13:53;21.25;;;19.55;;
46339;SDS011;47273;49.274;8.708;2022-09-16T08:16:19;21.30;;;19.13;;
46339;SDS011;47273;49.274;8.708;2022-09-16T08:18:47;26.83;;;20.08;;
46339;SDS011;47273;49.274;8.708;2022-09-16T08:21:15;21.65;;;19.50;;
46339;SDS011;47273;49.274;8.708;2022-09-16T08:23:46;22.10;;;20.20;;
46339;SDS011;47273;49.274;8.708;2022-09-16T08:26:12;20.92;;;19.23;;
46339;SDS011;47273;49.274;8.708;2022-09-16T08:28:42;21.55;;;19.60;;
46339;SDS011;47273;49.274;8.708;2022-09-16T08:31:18;21.33;;;19.13;;
46339;SDS011;47273;49.274;8.708;2022-09-16T08:33:44;21.00;;;19.10;;
46339;SDS011;47273;49.274;8.708;2022-09-16T08:36:12;21.92;;;19.63;;
46339;SDS011;47273;49.274;8.708;2022-09-16T08:38:43;20.73;;;19.00;;
46339;SDS011;47273;49.274;8.708;2022-09-16T08:43:53;21.50;;;19.42;;
46339;SDS011;47273;49.274;8.708;2022-09-16T08:47:12;21.08;;;19.27;;
46339;SDS011;47273;49.274;8.708;2022-09-16T08:49:47;21.38;;;19.35;;
46339;SDS011;47273;49.274;8.708;2022-09-16T08:52:28;21.45;;;19.52;;
46339;SDS011;47273;49.274;8.708;2022-09-16T08:55:13;21.33;;;19.42;;
46339;SDS011;47273;49.274;8.708;2022-09-16T08:57:47;22.48;;;20.42;;
46339;SDS011;47273;49.274;8.708;2022-09-16T09:00:24;21.13;;;19.35;;
46339;SDS011;47273;49.274;8.708;2022-09-16T09:05:53;22.42;;;19.98;;
46339;SDS011;47273;49.274;8.708;2022-09-16T09:10:51;22.38;;;20.00;;
46339;SDS011;47273;49.274;8.708;2022-09-16T09:13:47;21.52;;;19.70;;
46339;SDS011;47273;49.274;8.708;2022-09-16T09:16:25;21.15;;;19.20;;
46339;SDS011;47273;49.274;8.708;2022-09-16T09:19:10;22.15;;;19.95;;
46339;SDS011;47273;49.274;8.708;2022-09-16T09:30:11;20.55;;;18.95;;
46339;SDS011;47273;49.274;8.708;2022-09-16T09:40:46;21.52;;;19.58;;
46339;SDS011;47273;49.274;8.708;2022-09-16T09:43:17;20.40;;;18.70;;
46339;SDS011;47273;49.274;8.708;2022-09-16T09:48:57;21.42;;;19.67;;
46339;SDS011;47273;49.274;8.708;2022-09-16T09:51:34;21.15;;;19.48;;
46339;SDS011;47273;49.274;8.708;2022-09-16T09:54:21;21.27;;;19.43;;
46339;SDS011;47273;49.274;8.708;2022-09-16T09:57:54;20.75;;;18.98;;
46339;SDS011;47273;49.274;8.708;2022-09-16T10:00:02;20.40;;;18.80;;
46339;SDS011;47273;49.274;8.708;2022-09-16T10:02:43;21.10;;;18.98;;
46339;SDS011;47273;49.274;8.708;2022-09-16T10:05:26;18.48;;;17.13;;
46339;SDS011;47273;49.274;8.708;2022-09-16T10:07:57;19.48;;;17.52;;
46339;SDS011;47273;49.274;8.708;2022-09-16T10:10:28;19.50;;;17.88;;
46339;SDS011;47273;49.274;8.708;2022-09-16T10:13:07;18.60;;;17.13;;
46339;SDS011;47273;49.274;8.708;2022-09-16T10:15:34;18.83;;;17.52;;
46339;SDS011;47273;49.274;8.708;2022-09-16T10:18:00;18.90;;;17.60;;
46339;SDS011;47273;49.274;8.708;2022-09-16T10:23:05;19.13;;;17.40;;
46339;SDS011;47273;49.274;8.708;2022-09-16T10:25:41;19.02;;;17.63;;
46339;SDS011;47273;49.274;8.708;2022-09-16T10:28:20;19.63;;;17.92;;
46339;SDS011;47273;49.274;8.708;2022-09-16T10:30:50;19.08;;;17.50;;
46339;SDS011;47273;49.274;8.708;2022-09-16T10:35:57;19.73;;;18.23;;
46339;SDS011;47273;49.274;8.708;2022-09-16T10:41:24;19.23;;;17.70;;
46339;SDS011;47273;49.274;8.708;2022-09-16T10:46:25;18.83;;;17.50;;
46339;SDS011;47273;49.274;8.708;2022-09-16T10:48:52;18.60;;;17.17;;
46339;SDS011;47273;49.274;8.708;2022-09-16T10:51:27;19.00;;;17.33;;
46339;SDS011;47273;49.274;8.708;2022-09-16T10:53:58;18.40;;;17.10;;
46339;SDS011;47273;49.274;8.708;2022-09-16T10:56:28;18.75;;;17.35;;
46339;SDS011;47273;49.274;8.708;2022-09-16T10:59:00;18.85;;;16.98;;
46339;SDS011;47273;49.274;8.708;2022-09-16T11:01:41;18.40;;;17.00;;
46339;SDS011;47273;49.274;8.708;2022-09-16T11:12:31;18.60;;;16.92;;
46339;SDS011;47273;49.274;8.708;2022-09-16T11:23:08;18.58;;;17.25;;
46339;SDS011;47273;49.274;8.708;2022-09-16T11:26:06;18.75;;;17.27;;
46339;SDS011;47273;49.274;8.708;2022-09-16T11:29:05;18.30;;;16.90;;
46339;SDS011;47273;49.274;8.708;2022-09-16T11:34:30;18.20;;;16.90;;
46339;SDS011;47273;49.274;8.708;2022-09-16T11:37:52;18.38;;;17.15;;
46339;SDS011;47273;49.274;8.708;2022-09-16T11:49:24;17.55;;;16.27;;
46339;SDS011;47273;49.274;8.708;2022-09-16T11:57:25;18.90;;;17.60;;
46339;SDS011;47273;49.274;8.708;2022-09-16T12:05:17;17.90;;;16.70;;
46339;SDS011;47273;49.274;8.708;2022-09-16T12:08:13;17.85;;;16.38;;
46339;SDS011;47273;49.274;8.708;2022-09-16T12:10:57;18.25;;;16.75;;
46339;SDS011;47273;49.274;8.708;2022-09-16T12:16:04;18.92;;;17.63;;
46339;SDS011;47273;49.274;8.708;2022-09-16T12:18:53;19.38;;;17.98;;
46339;SDS011;47273;49.274;8.708;2022-09-16T12:28:22;18.77;;;17.48;;
46339;SDS011;47273;49.274;8.708;2022-09-16T12:30:58;18.85;;;17.40;;
46339;SDS011;47273;49.274;8.708;2022-09-16T12:33:48;19.55;;;17.98;;
46339;SDS011;47273;49.274;8.708;2022-09-16T12:36:28;19.27;;;17.88;;
46339;SDS011;47273;49.274;8.708;2022-09-16T12:38:58;19.63;;;18.15;;
46339;SDS011;47273;49.274;8.708;2022-09-16T12:58:31;18.65;;;17.33;;
46339;SDS011;47273;49.274;8.708;2022-09-16T13:03:38;19.02;;;17.70;;
46339;SDS011;47273;49.274;8.708;2022-09-16T13:06:24;20.08;;;18.27;;
46339;SDS011;47273;49.274;8.708;2022-09-16T13:08:53;21.23;;;19.50;;
46339;SDS011;47273;49.274;8.708;2022-09-16T13:11:21;19.52;;;17.90;;
46339;SDS011;47273;49.274;8.708;2022-09-16T13:13:51;19.30;;;17.67;;
46339;SDS011;47273;49.274;8.708;2022-09-16T13:16:29;19.45;;;17.90;;
46339;SDS011;47273;49.274;8.708;2022-09-16T13:22:43;18.55;;;17.33;;
46339;SDS011;47273;49.274;8.708;2022-09-16T13:24:54;19.73;;;18.23;;
46339;SDS011;47273;49.274;8.708;2022-09-16T13:30:28;18.80;;;17.30;;
46339;SDS011;47273;49.274;8.708;2022-09-16T13:33:02;18.60;;;17.02;;
46339;SDS011;47273;49.274;8.708;2022-09-16T13:35:35;20.02;;;18.17;;
46339;SDS011;47273;49.274;8.708;2022-09-16T13:40:38;18.02;;;16.83;;
46339;SDS011;47273;49.274;8.708;2022-09-16T13:45:39;18.95;;;17.20;;
46339;SDS011;47273;49.274;8.708;2022-09-16T13:48:16;18.13;;;16.92;;
46339;SDS011;47273;49.274;8.708;2022-09-16T13:50:49;18.67;;;17.17;;
46339;SDS011;47273;49.274;8.708;2022-09-16T13:53:23;18.20;;;16.75;;
46339;SDS011;47273;49.274;8.708;2022-09-16T13:55:58;17.50;;;16.33;;
46339;SDS011;47273;49.274;8.708;2022-09-16T14:01:19;17.70;;;16.55;;
46339;SDS011;47273;49.274;8.708;2022-09-16T14:14:41;17.98;;;16.77;;
46339;SDS011;47273;49.274;8.708;2022-09-16T14:17:13;18.10;;;16.60;;
46339;SDS011;47273;49.274;8.708;2022-09-16T14:19:44;18.50;;;17.17;;
46339;SDS011;47273;49.274;8.708;2022-09-16T14:22:13;18.58;;;17.00;;
46339;SDS011;47273;49.274;8.708;2022-09-16T14:24:43;18.15;;;16.83;;
46339;SDS011;47273;49.274;8.708;2022-09-16T14:27:43;18.25;;;16.70;;
46339;SDS011;47273;49.274;8.708;2022-09-16T14:30:04;18.30;;;17.10;;
46339;SDS011;47273;49.274;8.708;2022-09-16T14:32:37;18.92;;;17.35;;
46339;SDS011;47273;49.274;8.708;2022-09-16T14:35:07;18.02;;;16.80;;
46339;SDS011;47273;49.274;8.708;2022-09-16T14:37:40;17.88;;;16.58;;
46339;SDS011;47273;49.274;8.708;2022-09-16T14:40:11;18.73;;;17.42;;
46339;SDS011;47273;49.274;8.708;2022-09-16T14:42:42;17.98;;;16.67;;
46339;SDS011;47273;49.274;8.708;2022-09-16T14:45:18;18.10;;;16.60;;
46339;SDS011;47273;49.274;8.708;2022-09-16T14:47:45;18.05;;;16.75;;
46339;SDS011;47273;49.274;8.708;2022-09-16T14:50:14;18.23;;;17.02;;
46339;SDS011;47273;49.274;8.708;2022-09-16T14:52:57;18.15;;;16.58;;
46339;SDS011;47273;49.274;8.708;2022-09-16T14:55:29;17.48;;;16.30;;
46339;SDS011;47273;49.274;8.708;2022-09-16T14:57:57;17.40;;;16.17;;
46339;SDS011;47273;49.274;8.708;2022-09-16T15:00:26;17.70;;;16.38;;
46339;SDS011;47273;49.274;8.708;2022-09-16T15:03:09;17.55;;;16.35;;
46339;SDS011;47273;49.274;8.708;2022-09-16T15:05:40;17.98;;;16.67;;
46339;SDS011;47273;49.274;8.708;2022-09-16T15:10:38;17.55;;;16.35;;
46339;SDS011;47273;49.274;8.708;2022-09-16T15:13:10;17.92;;;16.42;;
46339;SDS011;47273;49.274;8.708;2022-09-16T15:15:38;17.55;;;16.35;;
46339;SDS011;47273;49.274;8.708;2022-09-16T15:18:26;18.20;;;16.73;;
46339;SDS011;47273;49.274;8.708;2022-09-16T15:24:00;18.38;;;16.98;;
46339;SDS011;47273;49.274;8.708;2022-09-16T15:26:39;17.85;;;16.70;;
46339;SDS011;47273;49.274;8.708;2022-09-16T15:32:13;17.75;;;16.55;;
46339;SDS011;47273;49.274;8.708;2022-09-16T15:34:45;18.00;;;16.80;;
46339;SDS011;47273;49.274;8.708;2022-09-16T15:42:44;17.67;;;16.45;;
46339;SDS011;47273;49.274;8.708;2022-09-16T15:45:16;17.85;;;16.75;;
46339;SDS011;47273;49.274;8.708;2022-09-16T15:47:57;18.85;;;17.38;;
46339;SDS011;47273;49.274;8.708;2022-09-16T15:50:35;18.35;;;16.77;;
46339;SDS011;47273;49.274;8.708;2022-09-16T15:53:17;17.33;;;16.13;;
46339;SDS011;47273;49.274;8.708;2022-09-16T15:55:51;17.77;;;16.58;;
46339;SDS011;47273;49.274;8.708;2022-09-16T16:01:33;17.63;;;16.42;;
46339;SDS011;47273;49.274;8.708;2022-09-16T16:04:05;18.40;;;16.27;;
46339;SDS011;47273;49.274;8.708;2022-09-16T16:06:55;17.73;;;16.55;;
46339;SDS011;47273;49.274;8.708;2022-09-16T16:11:51;17.40;;;16.25;;
46339;SDS011;47273;49.274;8.708;2022-09-16T16:14:20;16.95;;;15.85;;
46339;SDS011;47273;49.274;8.708;2022-09-16T16:17:08;17.75;;;16.50;;
46339;SDS011;47273;49.274;8.708;2022-09-16T16:19:36;17.35;;;16.02;;
46339;SDS011;47273;49.274;8.708;2022-09-16T16:22:11;17.70;;;16.50;;
46339;SDS011;47273;49.274;8.708;2022-09-16T16:24:37;17.42;;;16.23;;
46339;SDS011;47273;49.274;8.708;2022-09-16T16:27:04;17.90;;;16.55;;
46339;SDS011;47273;49.274;8.708;2022-09-16T16:29:31;17.77;;;16.48;;
46339;SDS011;47273;49.274;8.708;2022-09-16T16:32:00;17.58;;;16.38;;
46339;SDS011;47273;49.274;8.708;2022-09-16T16:34:30;17.05;;;15.95;;
46339;SDS011;47273;49.274;8.708;2022-09-16T16:36:57;17.17;;;16.08;;
46339;SDS011;47273;49.274;8.708;2022-09-16T16:42:24;16.73;;;15.63;;
46339;SDS011;47273;49.274;8.708;2022-09-16T16:44:53;16.27;;;15.27;;
46339;SDS011;47273;49.274;8.708;2022-09-16T16:49:50;17.38;;;16.08;;
46339;SDS011;47273;49.274;8.708;2022-09-16T16:52:20;16.73;;;15.63;;
46339;SDS011;47273;49.274;8.708;2022-09-16T16:54:47;17.08;;;15.95;;
46339;SDS011;47273;49.274;8.708;2022-09-16T16:57:12;18.20;;;16.13;;
46339;SDS011;47273;49.274;8.708;2022-09-16T16:59:38;17.48;;;15.93;;
46339;SDS011;47273;49.274;8.708;2022-09-16T17:02:04;16.17;;;15.13;;
46339;SDS011;47273;49.274;8.708;2022-09-16T17:04:30;16.30;;;15.20;;
46339;SDS011;47273;49.274;8.708;2022-09-16T17:06:55;16.20;;;15.20;;
46339;SDS011;47273;49.274;8.708;2022-09-16T17:09:24;16.48;;;15.13;;
46339;SDS011;47273;49.274;8.708;2022-09-16T17:11:51;16.20;;;15.20;;
46339;SDS011;47273;49.274;8.708;2022-09-16T17:14:21;17.50;;;16.30;;
46339;SDS011;47273;49.274;8.708;2022-09-16T17:16:48;16.60;;;15.60;;
46339;SDS011;47273;49.274;8.708;2022-09-16T17:19:15;15.90;;;14.90;;
46339;SDS011;47273;49.274;8.708;2022-09-16T17:21:44;15.85;;;14.75;;
46339;SDS011;47273;49.274;8.708;2022-09-16T17:24:13;16.35;;;15.25;;
46339;SDS011;47273;49.274;8.708;2022-09-16T17:26:47;17.40;;;16.17;;
46339;SDS011;47273;49.274;8.708;2022-09-16T17:29:13;16.92;;;15.82;;
46339;SDS011;47273;49.274;8.708;2022-09-16T17:31:39;17.58;;;16.00;;
46339;SDS011;47273;49.274;8.708;2022-09-16T17:34:10;16.70;;;15.70;;
46339;SDS011;47273;49.274;8.708;2022-09-16T17:36:40;15.90;;;14.88;;
46339;SDS011;47273;49.274;8.708;2022-09-16T17:39:09;17.95;;;16.42;;
46339;SDS011;47273;49.274;8.708;2022-09-16T17:41:42;16.30;;;15.20;;
46339;SDS011;47273;49.274;8.708;2022-09-16T17:44:11;16.65;;;15.55;;
46339;SDS011;47273;49.274;8.708;2022-09-16T17:46:38;17.33;;;16.13;;
46339;SDS011;47273;49.274;8.708;2022-09-16T17:49:06;17.27;;;16.15;;
46339;SDS011;47273;49.274;8.708;2022-09-16T17:51:37;17.95;;;16.58;;
46339;SDS011;47273;49.274;8.708;2022-09-16T17:54:03;17.90;;;16.52;;
46339;SDS011;47273;49.274;8.708;2022-09-16T17:56:31;17.77;;;16.33;;
46339;SDS011;47273;49.274;8.708;2022-09-16T17:58:57;18.20;;;16.70;;
46339;SDS011;47273;49.274;8.708;2022-09-16T18:01:26;17.83;;;16.58;;
46339;SDS011;47273;49.274;8.708;2022-09-16T18:03:53;17.85;;;16.40;;
46339;SDS011;47273;49.274;8.708;2022-09-16T18:06:24;18.13;;;16.92;;
46339;SDS011;47273;49.274;8.708;2022-09-16T18:08:52;18.20;;;16.65;;
46339;SDS011;47273;49.274;8.708;2022-09-16T18:11:19;18.10;;;16.77;;
46339;SDS011;47273;49.274;8.708;2022-09-16T18:13:45;17.58;;;16.45;;
46339;SDS011;47273;49.274;8.708;2022-09-16T18:16:13;18.20;;;16.67;;
46339;SDS011;47273;49.274;8.708;2022-09-16T18:18:48;18.73;;;17.20;;
46339;SDS011;47273;49.274;8.708;2022-09-16T18:21:15;17.92;;;16.73;;
46339;SDS011;47273;49.274;8.708;2022-09-16T18:23:43;17.95;;;16.70;;
46339;SDS011;47273;49.274;8.708;2022-09-16T18:26:18;17.92;;;16.45;;
46339;SDS011;47273;49.274;8.708;2022-09-16T18:28:46;17.38;;;16.08;;
46339;SDS011;47273;49.274;8.708;2022-09-16T18:31:17;17.50;;;16.40;;
46339;SDS011;47273;49.274;8.708;2022-09-16T18:33:45;18.30;;;17.10;;
46339;SDS011;47273;49.274;8.708;2022-09-16T18:36:14;18.20;;;16.88;;
46339;SDS011;47273;49.274;8.708;2022-09-16T18:38:40;18.08;;;16.88;;
46339;SDS011;47273;49.274;8.708;2022-09-16T18:41:11;18.48;;;17.08;;
46339;SDS011;47273;49.274;8.708;2022-09-16T18:43:41;19.15;;;17.40;;
46339;SDS011;47273;49.274;8.708;2022-09-16T18:48:41;18.63;;;17.20;;
46339;SDS011;47273;49.274;8.708;2022-09-16T18:51:13;18.67;;;17.17;;
46339;SDS011;47273;49.274;8.708;2022-09-16T18:53:47;18.45;;;17.05;;
46339;SDS011;47273;49.274;8.708;2022-09-16T18:56:16;18.80;;;17.40;;
46339;SDS011;47273;49.274;8.708;2022-09-16T18:58:43;18.30;;;17.00;;
46339;SDS011;47273;49.274;8.708;2022-09-16T19:03:52;18.42;;;17.13;;
46339;SDS011;47273;49.274;8.708;2022-09-16T19:06:25;19.90;;;18.20;;
46339;SDS011;47273;49.274;8.708;2022-09-16T19:08:53;21.55;;;18.77;;
46339;SDS011;47273;49.274;8.708;2022-09-16T19:11:30;20.90;;;18.75;;
46339;SDS011;47273;49.274;8.708;2022-09-16T19:13:56;18.80;;;17.33;;
46339;SDS011;47273;49.274;8.708;2022-09-16T19:16:22;18.40;;;17.00;;
46339;SDS011;47273;49.274;8.708;2022-09-16T19:18:49;18.15;;;16.95;;
46339;SDS011;47273;49.274;8.708;2022-09-16T19:21:17;18.85;;;17.23;;
46339;SDS011;47273;49.274;8.708;2022-09-16T19:23:59;18.98;;;17.58;;
46339;SDS011;47273;49.274;8.708;2022-09-16T19:26:27;19.35;;;17.67;;
46339;SDS011;47273;49.274;8.708;2022-09-16T19:29:04;18.70;;;17.40;;
46339;SDS011;47273;49.274;8.708;2022-09-16T19:31:34;18.63;;;17.42;;
46339;SDS011;47273;49.274;8.708;2022-09-16T19:34:22;19.08;;;17.58;;
46339;SDS011;47273;49.274;8.708;2022-09-16T19:36:48;19.95;;;18.10;;
46339;SDS011;47273;49.274;8.708;2022-09-16T19:39:14;18.95;;;17.45;;
46339;SDS011;47273;49.274;8.708;2022-09-16T19:41:40;19.48;;;17.70;;
46339;SDS011;47273;49.274;8.708;2022-09-16T19:44:08;18.25;;;17.05;;
46339;SDS011;47273;49.274;8.708;2022-09-16T19:46:37;18.00;;;16.52;;
46339;SDS011;47273;49.274;8.708;2022-09-16T19:49:06;18.00;;;16.70;;
46339;SDS011;47273;49.274;8.708;2022-09-16T19:51:32;18.42;;;17.02;;
46339;SDS011;47273;49.274;8.708;2022-09-16T19:53:58;17.25;;;16.05;;
46339;SDS011;47273;49.274;8.708;2022-09-16T19:56:25;18.27;;;17.05;;
46339;SDS011;47273;49.274;8.708;2022-09-16T19:58:53;19.08;;;17.13;;
46339;SDS011;47273;49.274;8.708;2022-09-16T20:01:23;18.17;;;16.88;;
46339;SDS011;47273;49.274;8.708;2022-09-16T20:03:50;17.88;;;16.67;;
46339;SDS011;47273;49.274;8.708;2022-09-16T20:06:17;18.15;;;16.95;;
46339;SDS011;47273;49.274;8.708;2022-09-16T20:08:47;17.77;;;16.58;;
46339;SDS011;47273;49.274;8.708;2022-09-16T20:11:18;18.13;;;16.92;;
46339;SDS011;47273;49.274;8.708;2022-09-16T20:13:49;18.13;;;16.83;;
46339;SDS011;47273;49.274;8.708;2022-09-16T20:16:20;18.08;;;16.67;;
46339;SDS011;47273;49.274;8.708;2022-09-16T20:18:47;18.73;;;17.23;;
46339;SDS011;47273;49.274;8.708;2022-09-16T20:21:18;17.67;;;16.48;;
46339;SDS011;47273;49.274;8.708;2022-09-16T20:23:45;17.58;;;16.38;;
46339;SDS011;47273;49.274;8.708;2022-09-16T20:26:12;17.80;;;16.50;;
46339;SDS011;47273;49.274;8.708;2022-09-16T20:28:43;17.38;;;16.27;;
